aviador You're here:

KEPH Decoded Metar

EPHRATA in WA, USA
Report Time2017-03-28 05:53:00
UTC Time2017-03-28 06:18:17
Flight Rules vfr VFR
Wind310° at 09 kt
W.Decomp.*RWY 29: 9.0 kt HW 0.6 kt RCW
RWY 22: 2.5 kt HW 8.7 kt RCW
RWY 21: 0.9 kt HW 9.0 kt RCW
W.Rank310° ranks 5
Current wind is below 310° avg. (9.6)
Visibility9999 m
Phenomena:N/A
Clouds:N/A
Expected CloudBase > 4,000 ft AGL from Temp-Dew spread
CeilingNone
Temp08°C (ISA -5)
Dew Point-2°C (50% RH)
AAT2.5°C
QNH1021 hPa
Density Alt525 ft
Elevation1,257 ft
Report Wrong Elevation
Raw Report
METAR KEPH 280553Z AUTO 31009KT 10SM CLR 08/M02 A3014 RMK AO2 SLP211
T00831022 10150 20061 51016=

Extra information for KEPH:More info

Metar Taf Metar & Taf Last 4 Metars F.Rules Stats Wind Profile Meteogram Temp Stats Airport Information Weather charts Add Link Nearby VenuesMetar ALERT Operation Metar Decoded Social comments

AIRNAV info for KEPH